createdAt,value
2023-03-29T00:02:30.495Z,1.90
2023-03-29T00:04:57.900Z,1.98
2023-03-29T00:07:26.103Z,2.50
2023-03-29T00:09:53.043Z,2.00
2023-03-29T00:12:19.629Z,1.98
2023-03-29T00:14:46.366Z,1.80
2023-03-29T00:17:13.094Z,2.35
2023-03-29T00:19:39.781Z,1.63
2023-03-29T00:22:06.316Z,2.00
2023-03-29T00:24:33.038Z,1.70
2023-03-29T00:26:59.760Z,1.75
2023-03-29T00:29:26.421Z,1.95
2023-03-29T00:31:54.270Z,2.03
2023-03-29T00:34:24.535Z,1.88
2023-03-29T00:36:52.996Z,1.85
2023-03-29T00:39:20.960Z,1.80
2023-03-29T00:41:49.907Z,1.90
2023-03-29T00:44:53.893Z,1.80
2023-03-29T00:47:42.765Z,1.67
2023-03-29T00:50:16.426Z,1.85
2023-03-29T00:52:46.359Z,1.88
2023-03-29T00:55:17.917Z,1.85
2023-03-29T00:57:46.856Z,1.67
2023-03-29T01:00:18.566Z,1.65
2023-03-29T01:02:50.999Z,1.98
2023-03-29T01:05:24.315Z,1.58
2023-03-29T01:07:59.029Z,1.90
2023-03-29T01:10:32.958Z,1.67
2023-03-29T01:13:13.213Z,1.90
2023-03-29T01:15:44.064Z,1.80
2023-03-29T01:18:11.054Z,1.70
2023-03-29T01:20:50.926Z,1.90
2023-03-29T01:23:26.983Z,1.70
2023-03-29T01:26:09.906Z,1.75
2023-03-29T01:28:41.268Z,1.77
2023-03-29T01:31:16.056Z,1.83
2023-03-29T01:33:48.170Z,1.88
2023-03-29T01:36:23.362Z,1.77
2023-03-29T01:38:56.969Z,1.67
2023-03-29T01:41:34.172Z,1.85
2023-03-29T01:44:09.978Z,1.40
2023-03-29T01:46:43.112Z,2.00
2023-03-29T01:49:22.971Z,1.75
2023-03-29T01:51:57.712Z,1.70
2023-03-29T01:54:41.551Z,2.00
2023-03-29T01:57:10.562Z,1.83
2023-03-29T01:59:40.115Z,1.90
2023-03-29T02:02:11.948Z,1.77
2023-03-29T02:04:45.857Z,1.83
2023-03-29T02:07:13.202Z,1.90
2023-03-29T02:09:41.162Z,1.70
2023-03-29T02:12:09.797Z,2.00
2023-03-29T02:14:36.497Z,1.58
2023-03-29T02:17:18.867Z,1.70
2023-03-29T02:19:50.243Z,2.00
2023-03-29T02:22:23.162Z,1.70
2023-03-29T02:24:52.772Z,1.88
2023-03-29T02:27:19.512Z,1.85
2023-03-29T02:29:47.802Z,1.67
2023-03-29T02:32:23.544Z,1.70
2023-03-29T02:35:06.680Z,1.73
2023-03-29T02:37:36.493Z,1.90
2023-03-29T02:40:07.970Z,2.20
2023-03-29T02:42:35.670Z,1.63
2023-03-29T02:45:03.868Z,2.42
2023-03-29T02:47:35.840Z,1.88
2023-03-29T02:50:02.437Z,2.05
2023-03-29T02:52:35.477Z,2.10
2023-03-29T02:55:03.899Z,1.83
2023-03-29T02:57:32.345Z,1.90
2023-03-29T02:59:59.897Z,1.83
2023-03-29T03:02:27.873Z,1.98
2023-03-29T03:04:54.556Z,1.65
2023-03-29T03:07:21.231Z,2.10
2023-03-29T03:09:47.883Z,1.98
2023-03-29T03:12:14.416Z,1.90
2023-03-29T03:14:41.023Z,2.10
2023-03-29T03:17:07.538Z,1.90
2023-03-29T03:19:34.060Z,1.73
2023-03-29T03:22:00.571Z,1.80
2023-03-29T03:24:28.216Z,1.75
2023-03-29T03:26:54.766Z,1.80
2023-03-29T03:29:21.411Z,2.00
2023-03-29T03:31:47.978Z,1.88
2023-03-29T03:34:14.494Z,1.95
2023-03-29T03:36:41.258Z,1.55
2023-03-29T03:39:07.985Z,2.08
2023-03-29T03:41:35.700Z,1.85
2023-03-29T03:44:02.256Z,1.98
2023-03-29T03:46:29.752Z,2.22
2023-03-29T03:48:56.578Z,2.10
2023-03-29T03:51:23.296Z,1.70
2023-03-29T03:53:49.914Z,1.90
2023-03-29T03:56:16.408Z,2.00
2023-03-29T03:58:42.975Z,2.40
2023-03-29T04:01:09.988Z,2.45
2023-03-29T04:03:37.612Z,2.28
2023-03-29T04:06:04.892Z,1.85
2023-03-29T04:08:32.041Z,2.00
2023-03-29T04:10:59.729Z,2.05
2023-03-29T04:13:27.210Z,2.17
2023-03-29T04:15:55.720Z,1.90
2023-03-29T04:18:23.819Z,2.25
2023-03-29T04:20:50.726Z,2.15
2023-03-29T04:23:17.387Z,2.00
2023-03-29T04:25:44.233Z,2.17
2023-03-29T04:28:12.066Z,2.30
2023-03-29T04:30:38.768Z,2.03
2023-03-29T04:33:05.512Z,2.10
2023-03-29T04:35:32.418Z,2.35
2023-03-29T04:37:59.136Z,1.75
2023-03-29T04:40:25.735Z,2.25
2023-03-29T04:42:52.597Z,2.20
2023-03-29T04:45:19.237Z,2.28
2023-03-29T04:47:46.378Z,2.10
2023-03-29T04:50:13.939Z,2.00
2023-03-29T04:52:41.445Z,1.90
2023-03-29T04:55:08.705Z,2.47
2023-03-29T04:57:35.335Z,2.17
2023-03-29T05:00:02.315Z,2.30
2023-03-29T05:02:32.281Z,2.35
2023-03-29T05:04:59.169Z,2.78
2023-03-29T05:07:25.679Z,2.38
2023-03-29T05:09:52.169Z,2.80
2023-03-29T05:12:18.695Z,2.30
2023-03-29T05:14:45.202Z,2.67
2023-03-29T05:17:12.758Z,2.33
2023-03-29T05:19:39.303Z,2.55
2023-03-29T05:22:05.842Z,2.42
2023-03-29T05:24:32.314Z,1.98
2023-03-29T05:26:58.966Z,2.50
2023-03-29T05:29:25.555Z,2.63
2023-03-29T05:31:52.540Z,2.35
2023-03-29T05:34:20.032Z,2.40
2023-03-29T05:36:46.665Z,2.47
2023-03-29T05:39:13.525Z,2.55
2023-03-29T05:41:40.425Z,2.83
2023-03-29T05:44:07.225Z,2.35
2023-03-29T05:46:33.769Z,2.35
2023-03-29T05:49:01.369Z,2.88
2023-03-29T05:51:27.944Z,2.22
2023-03-29T05:53:54.386Z,2.60
2023-03-29T05:56:20.884Z,2.92
2023-03-29T05:58:49.304Z,2.55
2023-03-29T06:01:17.876Z,2.60
2023-03-29T06:03:46.335Z,2.85
2023-03-29T06:06:16.366Z,2.65
2023-03-29T06:08:43.553Z,2.45
2023-03-29T06:11:11.952Z,2.28
2023-03-29T06:13:42.073Z,2.50
2023-03-29T06:16:13.420Z,2.72
2023-03-29T06:18:41.086Z,2.60
2023-03-29T06:21:09.341Z,2.45
2023-03-29T06:23:36.483Z,2.30
2023-03-29T06:26:03.348Z,2.95
2023-03-29T06:28:29.970Z,2.38
2023-03-29T06:31:02.390Z,2.80
2023-03-29T06:33:30.661Z,2.55
2023-03-29T06:35:57.637Z,2.72
2023-03-29T06:38:26.793Z,1.90
2023-03-29T06:41:02.371Z,3.08
2023-03-29T06:43:29.196Z,2.22
2023-03-29T06:45:55.820Z,2.20
2023-03-29T06:48:22.457Z,2.53
2023-03-29T06:50:49.357Z,2.75
2023-03-29T06:53:15.994Z,2.25
2023-03-29T06:55:42.730Z,2.67
2023-03-29T06:58:09.454Z,2.75
2023-03-29T07:00:39.018Z,2.42
2023-03-29T07:03:09.850Z,2.50
2023-03-29T07:05:37.286Z,2.55
2023-03-29T07:08:06.382Z,2.60
2023-03-29T07:10:38.452Z,2.60
2023-03-29T07:13:07.052Z,2.60
2023-03-29T07:15:33.861Z,2.88
2023-03-29T07:18:02.154Z,2.55
2023-03-29T07:20:29.303Z,2.10
2023-03-29T07:22:56.100Z,2.65
2023-03-29T07:25:24.093Z,2.78
2023-03-29T07:27:52.160Z,2.35
2023-03-29T07:30:23.016Z,2.05
2023-03-29T07:32:52.406Z,2.10
2023-03-29T07:35:19.176Z,2.53
2023-03-29T07:37:46.399Z,2.38
2023-03-29T07:40:16.381Z,2.30
2023-03-29T07:42:44.278Z,2.58
2023-03-29T07:45:13.668Z,2.25
2023-03-29T07:47:41.099Z,2.42
2023-03-29T07:50:08.907Z,2.28
2023-03-29T07:52:38.689Z,2.53
2023-03-29T07:55:10.353Z,2.20
2023-03-29T07:57:37.417Z,1.98
2023-03-29T08:00:15.757Z,2.30
2023-03-29T08:02:47.993Z,2.30
2023-03-29T08:05:19.005Z,2.17
2023-03-29T08:10:19.478Z,2.25
2023-03-29T08:12:47.535Z,2.00
2023-03-29T08:15:14.800Z,2.42
2023-03-29T08:17:41.712Z,2.70
2023-03-29T08:20:11.207Z,2.35
2023-03-29T08:22:38.902Z,2.28
2023-03-29T08:25:07.406Z,2.60
2023-03-29T08:27:34.768Z,3.40
2023-03-29T08:30:01.430Z,2.85
2023-03-29T08:32:28.071Z,2.35
2023-03-29T08:34:55.112Z,2.47
2023-03-29T08:37:21.926Z,2.67
2023-03-29T08:39:48.441Z,2.45
2023-03-29T08:42:52.054Z,2.60
2023-03-29T08:45:29.379Z,2.10
2023-03-29T08:48:23.110Z,2.40
2023-03-29T08:53:27.427Z,2.50
2023-03-29T08:55:57.486Z,2.60
2023-03-29T08:58:29.193Z,2.22
2023-03-29T09:00:58.756Z,2.97
2023-03-29T09:03:32.122Z,2.35
2023-03-29T09:06:09.958Z,2.33
2023-03-29T09:08:41.390Z,2.55
2023-03-29T09:11:23.191Z,2.90
2023-03-29T09:13:52.917Z,2.10
2023-03-29T09:16:38.194Z,2.40
2023-03-29T09:19:25.699Z,2.80
2023-03-29T09:22:02.886Z,2.75
2023-03-29T09:24:46.233Z,2.30
2023-03-29T09:27:28.105Z,2.50
2023-03-29T09:30:07.284Z,2.20
2023-03-29T09:32:59.133Z,2.67
2023-03-29T09:35:38.682Z,2.75
2023-03-29T09:38:10.773Z,2.28
2023-03-29T09:40:53.215Z,2.40
2023-03-29T09:43:30.664Z,2.45
2023-03-29T09:46:01.066Z,2.45
2023-03-29T09:48:32.090Z,2.72
2023-03-29T09:51:01.121Z,2.67
2023-03-29T09:53:28.035Z,2.60
2023-03-29T09:55:55.475Z,2.83
2023-03-29T09:58:27.873Z,2.50
2023-03-29T10:00:59.618Z,2.83
2023-03-29T10:03:29.541Z,2.40
2023-03-29T10:06:00.450Z,2.30
2023-03-29T10:08:37.630Z,2.47
2023-03-29T10:11:13.698Z,2.42
2023-03-29T10:13:47.529Z,2.13
2023-03-29T10:16:23.698Z,2.25
2023-03-29T10:18:50.471Z,2.40
2023-03-29T10:21:22.162Z,2.80
2023-03-29T10:23:56.763Z,2.58
2023-03-29T10:26:29.409Z,2.13
2023-03-29T10:28:57.402Z,2.40
2023-03-29T10:31:24.942Z,2.20
2023-03-29T10:33:58.467Z,2.58
2023-03-29T10:36:27.388Z,2.55
2023-03-29T10:38:59.881Z,2.35
2023-03-29T10:41:28.161Z,2.67
2023-03-29T10:43:54.815Z,2.40
2023-03-29T10:46:42.427Z,2.40
2023-03-29T10:49:20.867Z,2.38
2023-03-29T10:51:51.901Z,2.50
2023-03-29T10:54:22.491Z,2.40
2023-03-29T10:57:02.100Z,2.70
2023-03-29T10:59:50.296Z,2.50
2023-03-29T11:02:20.721Z,2.90
2023-03-29T11:05:25.586Z,2.50
2023-03-29T11:08:08.805Z,2.28
2023-03-29T11:11:46.311Z,2.42
2023-03-29T11:15:04.682Z,2.33
2023-03-29T11:17:52.894Z,2.35
2023-03-29T11:20:46.425Z,2.92
2023-03-29T11:23:35.260Z,2.65
2023-03-29T11:26:11.443Z,2.40
2023-03-29T11:28:48.786Z,2.60
2023-03-29T11:31:38.551Z,2.40
2023-03-29T11:34:33.932Z,2.55
2023-03-29T11:37:20.461Z,2.30
2023-03-29T11:39:56.327Z,2.25
2023-03-29T11:42:28.658Z,2.22
2023-03-29T11:44:59.723Z,2.40
2023-03-29T11:47:33.361Z,2.20
2023-03-29T11:50:07.824Z,1.90
2023-03-29T11:52:40.889Z,1.60
2023-03-29T11:55:16.020Z,1.65
2023-03-29T11:58:06.138Z,1.83
2023-03-29T12:00:38.847Z,1.73
2023-03-29T12:03:17.497Z,1.92
2023-03-29T12:05:52.222Z,1.67
2023-03-29T12:08:44.886Z,1.80
2023-03-29T12:11:22.975Z,1.80
2023-03-29T12:14:16.672Z,1.60
2023-03-29T12:17:04.257Z,1.90
2023-03-29T12:19:42.617Z,1.80
2023-03-29T12:22:10.218Z,1.98
2023-03-29T12:24:41.036Z,1.92
2023-03-29T12:27:24.089Z,2.10
2023-03-29T12:30:17.939Z,1.52
2023-03-29T12:33:21.605Z,1.65
2023-03-29T12:36:03.430Z,1.70
2023-03-29T12:38:31.214Z,1.50
2023-03-29T12:41:00.858Z,1.80
2023-03-29T12:43:32.211Z,1.60
2023-03-29T12:46:07.426Z,1.70
2023-03-29T12:48:37.834Z,1.77
2023-03-29T12:51:10.774Z,1.70
2023-03-29T12:53:42.267Z,1.80
2023-03-29T12:56:13.659Z,1.52
2023-03-29T12:58:40.155Z,1.60
2023-03-29T13:01:31.389Z,1.40
2023-03-29T13:04:18.421Z,1.60
2023-03-29T13:07:05.786Z,1.70
2023-03-29T13:09:51.240Z,1.60
2023-03-29T13:12:39.504Z,1.63
2023-03-29T13:15:22.076Z,1.80
2023-03-29T13:18:18.781Z,1.40
2023-03-29T13:21:01.007Z,1.67
2023-03-29T13:23:39.743Z,1.50
2023-03-29T13:26:22.103Z,1.40
2023-03-29T13:29:25.855Z,1.70
2023-03-29T13:32:23.427Z,1.55
2023-03-29T13:34:58.533Z,2.13
2023-03-29T13:38:00.482Z,1.83
2023-03-29T13:40:29.997Z,1.42
2023-03-29T13:43:08.466Z,1.67
2023-03-29T13:45:36.206Z,1.50
2023-03-29T13:48:05.783Z,1.58
2023-03-29T13:50:39.100Z,1.63
2023-03-29T13:53:26.786Z,1.50
2023-03-29T13:55:54.448Z,1.60
2023-03-29T13:58:44.948Z,1.58
2023-03-29T14:01:48.306Z,1.50
2023-03-29T14:04:21.442Z,1.65
2023-03-29T14:06:53.225Z,1.38
2023-03-29T14:09:24.027Z,1.50
2023-03-29T14:11:51.608Z,1.30
2023-03-29T14:14:22.752Z,1.30
2023-03-29T14:17:07.654Z,1.20
2023-03-29T14:19:37.563Z,1.20
2023-03-29T14:22:12.483Z,1.20
2023-03-29T14:24:41.454Z,1.30
2023-03-29T14:27:11.382Z,1.25
2023-03-29T14:29:38.463Z,1.00
2023-03-29T14:32:12.660Z,1.48
2023-03-29T14:34:39.984Z,1.30
2023-03-29T14:37:09.031Z,1.48
2023-03-29T14:39:36.194Z,1.30
2023-03-29T14:42:03.262Z,1.20
2023-03-29T14:44:34.747Z,1.10
2023-03-29T14:47:03.368Z,2.00
2023-03-29T14:49:31.745Z,1.17
2023-03-29T14:51:58.931Z,1.20
2023-03-29T14:54:28.692Z,0.95
2023-03-29T14:56:56.044Z,1.00
2023-03-29T14:59:36.548Z,1.05
2023-03-29T15:02:04.302Z,1.10
2023-03-29T15:04:33.516Z,1.20
2023-03-29T15:07:00.219Z,1.05
2023-03-29T15:09:31.799Z,1.20
2023-03-29T15:12:00.440Z,1.27
2023-03-29T15:14:33.710Z,0.93
2023-03-29T15:17:16.260Z,0.90
2023-03-29T15:19:42.762Z,1.10
2023-03-29T15:22:11.383Z,1.02
2023-03-29T15:24:44.523Z,1.17
2023-03-29T15:27:15.962Z,1.10
2023-03-29T15:30:02.803Z,1.15
2023-03-29T15:32:36.015Z,1.25
2023-03-29T15:35:10.795Z,1.20
2023-03-29T15:37:37.756Z,1.02
2023-03-29T15:40:09.625Z,1.10
2023-03-29T15:42:36.623Z,1.10
2023-03-29T15:45:06.200Z,1.20
2023-03-29T15:47:32.995Z,1.65
2023-03-29T15:49:59.574Z,1.50
2023-03-29T15:52:26.070Z,1.38
2023-03-29T15:54:52.686Z,1.13
2023-03-29T15:57:19.347Z,1.38
2023-03-29T15:59:46.354Z,1.10
2023-03-29T16:02:16.416Z,1.20
2023-03-29T16:04:43.400Z,1.27
2023-03-29T16:07:13.839Z,1.70
2023-03-29T16:09:40.429Z,1.25
2023-03-29T16:12:07.066Z,1.20
2023-03-29T16:14:34.010Z,1.60
2023-03-29T16:17:02.852Z,1.50
2023-03-29T16:21:58.387Z,1.40
2023-03-29T16:24:31.322Z,1.50
2023-03-29T16:26:58.797Z,1.30
2023-03-29T16:29:25.996Z,1.38
2023-03-29T16:31:53.469Z,1.27
2023-03-29T16:34:21.817Z,1.30
2023-03-29T16:36:49.257Z,1.20
2023-03-29T16:39:17.335Z,1.30
2023-03-29T16:41:46.907Z,1.70
2023-03-29T16:44:16.845Z,1.27
2023-03-29T16:46:43.886Z,1.30
2023-03-29T16:49:17.957Z,1.30
2023-03-29T16:51:48.285Z,1.10
2023-03-29T16:54:17.099Z,1.20
2023-03-29T16:56:43.749Z,1.50
2023-03-29T16:59:10.505Z,1.42
2023-03-29T17:01:37.276Z,1.35
2023-03-29T17:04:04.929Z,1.40
2023-03-29T17:06:32.738Z,1.33
2023-03-29T17:09:00.602Z,1.50
2023-03-29T17:11:28.364Z,1.30
2023-03-29T17:13:55.195Z,1.38
2023-03-29T17:16:21.862Z,1.70
2023-03-29T17:18:48.518Z,1.50
2023-03-29T17:21:15.548Z,1.77
2023-03-29T17:23:42.155Z,1.52
2023-03-29T17:26:08.975Z,1.50
2023-03-29T17:28:35.852Z,1.20
2023-03-29T17:31:09.759Z,1.55
2023-03-29T17:33:36.528Z,1.38
2023-03-29T17:36:04.477Z,1.23
2023-03-29T17:38:33.792Z,1.90
2023-03-29T17:41:00.995Z,1.58
2023-03-29T17:43:27.674Z,1.45
2023-03-29T17:45:54.551Z,1.30
2023-03-29T17:48:21.602Z,1.50
2023-03-29T17:50:48.251Z,1.63
2023-03-29T17:53:14.890Z,1.50
2023-03-29T17:55:41.533Z,1.50
2023-03-29T17:58:08.498Z,1.20
2023-03-29T18:00:35.709Z,1.40
2023-03-29T18:03:02.266Z,1.50
2023-03-29T18:05:28.901Z,1.38
2023-03-29T18:07:56.433Z,1.40
2023-03-29T18:10:23.610Z,1.45
2023-03-29T18:12:50.306Z,1.50
2023-03-29T18:15:17.091Z,1.65
2023-03-29T18:17:43.670Z,1.50
2023-03-29T18:20:11.905Z,1.88
2023-03-29T18:22:41.348Z,1.60
2023-03-29T18:25:09.543Z,2.08
2023-03-29T18:27:38.078Z,3.08
2023-03-29T18:30:06.480Z,2.00
2023-03-29T18:32:33.557Z,1.90
2023-03-29T18:35:02.281Z,2.20
2023-03-29T18:37:29.010Z,2.05
2023-03-29T18:39:55.704Z,1.70
2023-03-29T18:42:22.464Z,1.83
2023-03-29T18:44:49.103Z,2.00
2023-03-29T18:47:15.695Z,1.90
2023-03-29T18:49:43.225Z,2.00
2023-03-29T18:52:09.863Z,2.00
2023-03-29T18:54:36.522Z,2.15
2023-03-29T18:57:03.193Z,2.00
2023-03-29T18:59:29.805Z,2.10
2023-03-29T19:01:56.876Z,1.92
2023-03-29T19:04:25.685Z,1.73
2023-03-29T19:06:54.077Z,2.30
2023-03-29T19:09:20.644Z,2.30
2023-03-29T19:11:49.978Z,2.28
2023-03-29T19:14:23.444Z,2.28
2023-03-29T19:16:51.719Z,3.40
2023-03-29T19:19:19.175Z,2.20
2023-03-29T19:21:49.647Z,2.60
2023-03-29T19:24:16.419Z,2.58
2023-03-29T19:26:44.462Z,2.55
2023-03-29T19:29:11.646Z,2.33
2023-03-29T19:31:38.714Z,2.05
2023-03-29T19:34:07.024Z,2.10
2023-03-29T19:36:33.859Z,2.10
2023-03-29T19:39:00.920Z,2.00
2023-03-29T19:41:27.516Z,1.83
2023-03-29T19:43:54.349Z,1.92
2023-03-29T19:46:21.158Z,2.20
2023-03-29T19:48:48.058Z,1.92
2023-03-29T19:51:14.653Z,2.08
2023-03-29T19:53:41.905Z,1.67
2023-03-29T19:56:10.989Z,1.75
2023-03-29T19:58:37.758Z,2.20
2023-03-29T20:01:04.556Z,2.63
2023-03-29T20:03:34.049Z,2.80
2023-03-29T20:06:01.590Z,3.17
2023-03-29T20:08:28.336Z,2.30
2023-03-29T20:11:14.196Z,2.00
2023-03-29T20:13:42.482Z,1.80
2023-03-29T20:16:13.164Z,2.00
2023-03-29T20:18:40.212Z,1.88
2023-03-29T20:21:08.058Z,1.80
2023-03-29T20:23:35.419Z,1.70
2023-03-29T20:26:02.074Z,1.77
2023-03-29T20:28:29.276Z,2.10
2023-03-29T20:30:56.087Z,2.20
2023-03-29T20:33:22.758Z,1.83
2023-03-29T20:35:49.460Z,1.90
2023-03-29T20:38:16.224Z,1.90
2023-03-29T20:40:42.840Z,2.00
2023-03-29T20:43:13.437Z,2.03
2023-03-29T20:45:52.670Z,1.83
2023-03-29T20:48:24.781Z,1.70
2023-03-29T20:50:52.047Z,2.00
2023-03-29T20:53:20.500Z,1.85
2023-03-29T20:55:48.050Z,1.83
2023-03-29T20:58:16.082Z,1.80
2023-03-29T21:00:43.707Z,2.30
2023-03-29T21:03:11.141Z,1.80
2023-03-29T21:05:38.882Z,1.90
2023-03-29T21:08:05.851Z,2.00
2023-03-29T21:10:32.803Z,1.80
2023-03-29T21:13:00.181Z,1.95
2023-03-29T21:15:28.667Z,1.75
2023-03-29T21:17:55.299Z,1.75
2023-03-29T21:20:21.975Z,1.92
2023-03-29T21:22:48.561Z,1.77
2023-03-29T21:25:15.940Z,1.98
2023-03-29T21:27:43.048Z,2.45
2023-03-29T21:30:10.948Z,2.40
2023-03-29T21:32:37.681Z,2.35
2023-03-29T21:35:04.485Z,1.92
2023-03-29T21:37:31.146Z,2.03
2023-03-29T21:39:57.915Z,2.20
2023-03-29T21:42:24.488Z,2.42
2023-03-29T21:44:51.209Z,1.95
2023-03-29T21:47:17.911Z,1.92
2023-03-29T21:49:44.463Z,2.22
2023-03-29T21:52:11.140Z,2.00
2023-03-29T21:54:37.699Z,2.22
2023-03-29T21:57:04.338Z,1.70
2023-03-29T21:59:31.221Z,1.90
2023-03-29T22:01:57.766Z,2.10
2023-03-29T22:04:35.750Z,1.50
2023-03-29T22:07:03.667Z,2.10
2023-03-29T22:09:31.751Z,1.90
2023-03-29T22:11:59.760Z,1.83
2023-03-29T22:14:28.540Z,2.20
2023-03-29T22:16:55.267Z,2.05
2023-03-29T22:19:21.929Z,2.15
2023-03-29T22:21:48.751Z,2.30
2023-03-29T22:24:16.567Z,1.80
2023-03-29T22:26:44.949Z,2.20
2023-03-29T22:29:11.541Z,1.98
2023-03-29T22:31:39.349Z,2.08
2023-03-29T22:34:06.182Z,2.15
2023-03-29T22:36:33.114Z,1.63
2023-03-29T22:38:59.783Z,1.80
2023-03-29T22:41:27.963Z,2.20
2023-03-29T22:43:56.674Z,1.75
2023-03-29T22:46:23.845Z,1.90
2023-03-29T22:48:51.132Z,2.00
2023-03-29T22:51:17.803Z,2.10
2023-03-29T22:53:44.848Z,2.10
2023-03-29T22:56:11.386Z,2.05
2023-03-29T22:58:38.074Z,2.08
2023-03-29T23:01:06.041Z,1.92
2023-03-29T23:03:33.441Z,1.90
2023-03-29T23:06:03.749Z,1.83
2023-03-29T23:08:31.976Z,2.03
2023-03-29T23:10:58.762Z,2.50
2023-03-29T23:13:29.291Z,2.05
2023-03-29T23:15:59.107Z,2.20
2023-03-29T23:18:28.407Z,1.70
2023-03-29T23:20:56.823Z,2.50
2023-03-29T23:23:24.848Z,2.08
2023-03-29T23:25:53.390Z,1.98
2023-03-29T23:28:23.671Z,2.40
2023-03-29T23:31:04.917Z,1.70
2023-03-29T23:33:35.208Z,2.13
2023-03-29T23:36:04.205Z,2.20
2023-03-29T23:38:31.947Z,2.10
2023-03-29T23:41:02.230Z,1.83
2023-03-29T23:43:33.517Z,1.98
2023-03-29T23:46:02.657Z,1.98
2023-03-29T23:48:29.706Z,1.92
2023-03-29T23:50:58.998Z,2.08
2023-03-29T23:53:28.530Z,2.05
2023-03-29T23:56:00.455Z,2.20
2023-03-29T23:58:37.757Z,2.05
